Acequia, Idaho
Current Conditions -  °F | °C
As of 11:53 AM on Thursday 30 Oct 2014 (Local Time) from KBYI Reporting Station
Clear Clear  
Wind Chill: 15°   Ceiling: Unl
Heat Index: 15°   Visibility: 10mi
Dew Point:   Wind: 13mph
Humidity: 39%   Direction: 40°NE
Pressure: 30.2"   Gusts: NA
Location:  42.6416°N, 113.637°W
Report Text: KBYI 301753Z AUTO 04011KT 10SM CLR 15/01 A3020 RMK AO2 SLP216 T01500011 10150 21006 58003
Loading
Personal Weather Stations






























Interactive Weather Map New forecast layout! Learn more

10-Day Weather Forecast

Advertisements
Track Severe Weather on mobile